sensor_id;sensor_type;location;lat;lon;timestamp;temperature;humidity
23114;DHT22;11726;50.122;8.832;2023-09-07T00:02:06;18.60;99.90
23114;DHT22;11726;50.122;8.832;2023-09-07T00:04:33;18.60;99.90
23114;DHT22;11726;50.122;8.832;2023-09-07T00:07:00;18.60;99.90
23114;DHT22;11726;50.122;8.832;2023-09-07T00:09:27;18.50;99.90
23114;DHT22;11726;50.122;8.832;2023-09-07T00:11:53;18.50;99.90
23114;DHT22;11726;50.122;8.832;2023-09-07T00:14:20;18.60;99.90
23114;DHT22;11726;50.122;8.832;2023-09-07T00:16:47;18.50;99.90
23114;DHT22;11726;50.122;8.832;2023-09-07T00:19:14;18.30;99.90
23114;DHT22;11726;50.122;8.832;2023-09-07T00:21:41;18.30;99.90
23114;DHT22;11726;50.122;8.832;2023-09-07T00:24:08;18.40;99.90
23114;DHT22;11726;50.122;8.832;2023-09-07T00:26:34;18.40;99.90
23114;DHT22;11726;50.122;8.832;2023-09-07T00:29:01;18.20;99.90
23114;DHT22;11726;50.122;8.832;2023-09-07T00:31:28;18.30;99.90
23114;DHT22;11726;50.122;8.832;2023-09-07T00:33:54;18.30;99.90
23114;DHT22;11726;50.122;8.832;2023-09-07T00:36:21;18.20;99.90
23114;DHT22;11726;50.122;8.832;2023-09-07T00:38:48;18.10;99.90
23114;DHT22;11726;50.122;8.832;2023-09-07T00:41:14;18.20;99.90
23114;DHT22;11726;50.122;8.832;2023-09-07T00:43:41;18.10;99.90
23114;DHT22;11726;50.122;8.832;2023-09-07T00:46:08;18.10;99.90
23114;DHT22;11726;50.122;8.832;2023-09-07T00:48:35;18.10;99.90
23114;DHT22;11726;50.122;8.832;2023-09-07T00:51:02;18.10;99.90
23114;DHT22;11726;50.122;8.832;2023-09-07T00:53:29;18.10;99.90
23114;DHT22;11726;50.122;8.832;2023-09-07T00:55:58;18.00;99.90
23114;DHT22;11726;50.122;8.832;2023-09-07T00:58:25;18.10;99.90
23114;DHT22;11726;50.122;8.832;2023-09-07T01:00:52;18.10;99.90
23114;DHT22;11726;50.122;8.832;2023-09-07T01:03:19;18.00;99.90
23114;DHT22;11726;50.122;8.832;2023-09-07T01:05:52;18.00;99.90
23114;DHT22;11726;50.122;8.832;2023-09-07T01:08:49;17.90;99.90
23114;DHT22;11726;50.122;8.832;2023-09-07T01:11:18;17.90;99.90
23114;DHT22;11726;50.122;8.832;2023-09-07T01:13:53;17.80;99.90
23114;DHT22;11726;50.122;8.832;2023-09-07T01:16:23;17.90;99.90
23114;DHT22;11726;50.122;8.832;2023-09-07T01:18:51;17.90;99.90
23114;DHT22;11726;50.122;8.832;2023-09-07T01:21:18;17.70;99.90
23114;DHT22;11726;50.122;8.832;2023-09-07T01:23:46;17.60;99.90
23114;DHT22;11726;50.122;8.832;2023-09-07T01:26:14;17.60;99.90
23114;DHT22;11726;50.122;8.832;2023-09-07T01:28:40;17.50;99.90
23114;DHT22;11726;50.122;8.832;2023-09-07T01:31:08;17.40;99.90
23114;DHT22;11726;50.122;8.832;2023-09-07T01:33:36;17.40;99.90
23114;DHT22;11726;50.122;8.832;2023-09-07T01:36:04;17.40;99.90
23114;DHT22;11726;50.122;8.832;2023-09-07T01:38:30;17.40;99.90
23114;DHT22;11726;50.122;8.832;2023-09-07T01:40:57;17.40;99.90
23114;DHT22;11726;50.122;8.832;2023-09-07T01:43:24;17.40;99.90
23114;DHT22;11726;50.122;8.832;2023-09-07T01:45:51;17.40;99.90
23114;DHT22;11726;50.122;8.832;2023-09-07T01:48:18;17.40;99.90
23114;DHT22;11726;50.122;8.832;2023-09-07T01:50:45;17.40;99.90
23114;DHT22;11726;50.122;8.832;2023-09-07T01:53:11;17.50;99.90
23114;DHT22;11726;50.122;8.832;2023-09-07T01:55:38;17.40;99.90
23114;DHT22;11726;50.122;8.832;2023-09-07T01:58:05;17.40;99.90
23114;DHT22;11726;50.122;8.832;2023-09-07T02:00:36;17.40;99.90
23114;DHT22;11726;50.122;8.832;2023-09-07T02:03:03;17.40;99.90
23114;DHT22;11726;50.122;8.832;2023-09-07T02:05:30;17.40;99.90
23114;DHT22;11726;50.122;8.832;2023-09-07T02:07:58;17.30;99.90
23114;DHT22;11726;50.122;8.832;2023-09-07T02:10:25;17.40;99.90
23114;DHT22;11726;50.122;8.832;2023-09-07T02:12:52;17.40;99.90
23114;DHT22;11726;50.122;8.832;2023-09-07T02:15:19;17.30;99.90
23114;DHT22;11726;50.122;8.832;2023-09-07T02:17:46;17.20;99.90
23114;DHT22;11726;50.122;8.832;2023-09-07T02:20:12;17.10;99.90
23114;DHT22;11726;50.122;8.832;2023-09-07T02:22:39;17.10;99.90
23114;DHT22;11726;50.122;8.832;2023-09-07T02:25:07;17.10;99.90
23114;DHT22;11726;50.122;8.832;2023-09-07T02:27:36;17.10;99.90
23114;DHT22;11726;50.122;8.832;2023-09-07T02:30:03;17.00;99.90
23114;DHT22;11726;50.122;8.832;2023-09-07T02:32:31;17.00;99.90
23114;DHT22;11726;50.122;8.832;2023-09-07T02:34:58;16.90;99.90
23114;DHT22;11726;50.122;8.832;2023-09-07T02:37:25;16.80;99.90
23114;DHT22;11726;50.122;8.832;2023-09-07T02:39:52;16.80;99.90
23114;DHT22;11726;50.122;8.832;2023-09-07T02:42:19;16.70;99.90
23114;DHT22;11726;50.122;8.832;2023-09-07T02:44:45;16.70;99.90
23114;DHT22;11726;50.122;8.832;2023-09-07T02:47:12;16.70;99.90
23114;DHT22;11726;50.122;8.832;2023-09-07T02:49:39;16.60;99.90
23114;DHT22;11726;50.122;8.832;2023-09-07T02:52:06;16.60;99.90
23114;DHT22;11726;50.122;8.832;2023-09-07T02:54:32;16.70;99.90
23114;DHT22;11726;50.122;8.832;2023-09-07T02:56:59;16.70;99.90
23114;DHT22;11726;50.122;8.832;2023-09-07T02:59:26;16.60;99.90
23114;DHT22;11726;50.122;8.832;2023-09-07T03:01:52;16.60;99.90
23114;DHT22;11726;50.122;8.832;2023-09-07T03:04:19;16.50;99.90
23114;DHT22;11726;50.122;8.832;2023-09-07T03:06:45;16.40;99.90
23114;DHT22;11726;50.122;8.832;2023-09-07T03:09:12;16.40;99.90
23114;DHT22;11726;50.122;8.832;2023-09-07T03:11:39;16.40;99.90
23114;DHT22;11726;50.122;8.832;2023-09-07T03:14:05;16.40;99.90
23114;DHT22;11726;50.122;8.832;2023-09-07T03:16:32;16.30;99.90
23114;DHT22;11726;50.122;8.832;2023-09-07T03:18:59;16.20;99.90
23114;DHT22;11726;50.122;8.832;2023-09-07T03:21:25;16.10;99.90
23114;DHT22;11726;50.122;8.832;2023-09-07T03:23:58;16.10;99.90
23114;DHT22;11726;50.122;8.832;2023-09-07T03:26:25;16.00;99.90
23114;DHT22;11726;50.122;8.832;2023-09-07T03:28:51;15.90;99.90
23114;DHT22;11726;50.122;8.832;2023-09-07T03:31:18;15.80;99.90
23114;DHT22;11726;50.122;8.832;2023-09-07T03:33:45;15.80;99.90
23114;DHT22;11726;50.122;8.832;2023-09-07T03:36:12;15.70;99.90
23114;DHT22;11726;50.122;8.832;2023-09-07T03:38:42;15.70;99.90
23114;DHT22;11726;50.122;8.832;2023-09-07T03:41:09;15.70;99.90
23114;DHT22;11726;50.122;8.832;2023-09-07T03:43:36;15.70;99.90
23114;DHT22;11726;50.122;8.832;2023-09-07T03:46:03;15.50;99.90
23114;DHT22;11726;50.122;8.832;2023-09-07T03:48:29;15.40;99.90
23114;DHT22;11726;50.122;8.832;2023-09-07T03:50:57;15.50;99.90
23114;DHT22;11726;50.122;8.832;2023-09-07T03:53:23;15.40;99.90
23114;DHT22;11726;50.122;8.832;2023-09-07T03:55:50;15.40;99.90
23114;DHT22;11726;50.122;8.832;2023-09-07T03:58:16;15.40;99.90
23114;DHT22;11726;50.122;8.832;2023-09-07T04:00:44;15.50;99.90
23114;DHT22;11726;50.122;8.832;2023-09-07T04:03:10;15.40;99.90
23114;DHT22;11726;50.122;8.832;2023-09-07T04:05:37;15.30;99.90
23114;DHT22;11726;50.122;8.832;2023-09-07T04:08:05;15.30;99.90
23114;DHT22;11726;50.122;8.832;2023-09-07T04:10:32;15.30;99.90
23114;DHT22;11726;50.122;8.832;2023-09-07T04:12:59;15.20;99.90
23114;DHT22;11726;50.122;8.832;2023-09-07T04:15:26;15.20;99.90
23114;DHT22;11726;50.122;8.832;2023-09-07T04:17:53;15.10;99.90
23114;DHT22;11726;50.122;8.832;2023-09-07T04:20:21;15.20;99.90
23114;DHT22;11726;50.122;8.832;2023-09-07T04:22:48;15.20;99.90
23114;DHT22;11726;50.122;8.832;2023-09-07T04:25:15;15.20;99.90
23114;DHT22;11726;50.122;8.832;2023-09-07T04:27:42;15.10;99.90
23114;DHT22;11726;50.122;8.832;2023-09-07T04:30:09;15.00;99.90
23114;DHT22;11726;50.122;8.832;2023-09-07T04:32:36;15.00;99.90
23114;DHT22;11726;50.122;8.832;2023-09-07T04:35:03;14.90;99.90
23114;DHT22;11726;50.122;8.832;2023-09-07T04:37:30;14.80;99.90
23114;DHT22;11726;50.122;8.832;2023-09-07T04:39:57;14.90;99.90
23114;DHT22;11726;50.122;8.832;2023-09-07T04:42:23;15.00;99.90
23114;DHT22;11726;50.122;8.832;2023-09-07T04:44:50;14.90;99.90
23114;DHT22;11726;50.122;8.832;2023-09-07T04:47:17;14.80;99.90
23114;DHT22;11726;50.122;8.832;2023-09-07T04:49:49;14.90;99.90
23114;DHT22;11726;50.122;8.832;2023-09-07T04:52:17;14.90;99.90
23114;DHT22;11726;50.122;8.832;2023-09-07T04:54:45;14.90;99.90
23114;DHT22;11726;50.122;8.832;2023-09-07T04:57:13;14.90;99.90
23114;DHT22;11726;50.122;8.832;2023-09-07T04:59:40;14.90;99.90
23114;DHT22;11726;50.122;8.832;2023-09-07T05:02:06;14.80;99.90
23114;DHT22;11726;50.122;8.832;2023-09-07T05:04:33;14.90;99.90
23114;DHT22;11726;50.122;8.832;2023-09-07T05:07:00;15.00;99.90
23114;DHT22;11726;50.122;8.832;2023-09-07T05:09:27;15.00;99.90
23114;DHT22;11726;50.122;8.832;2023-09-07T05:11:56;14.90;99.90
23114;DHT22;11726;50.122;8.832;2023-09-07T05:14:25;14.90;99.90
23114;DHT22;11726;50.122;8.832;2023-09-07T05:16:52;14.90;99.90
23114;DHT22;11726;50.122;8.832;2023-09-07T05:19:22;14.90;99.90
23114;DHT22;11726;50.122;8.832;2023-09-07T05:21:48;15.00;99.90
23114;DHT22;11726;50.122;8.832;2023-09-07T05:24:15;15.00;99.90
23114;DHT22;11726;50.122;8.832;2023-09-07T05:26:42;15.00;99.90
23114;DHT22;11726;50.122;8.832;2023-09-07T05:29:11;15.10;99.90
23114;DHT22;11726;50.122;8.832;2023-09-07T05:31:38;15.20;99.90
23114;DHT22;11726;50.122;8.832;2023-09-07T05:34:05;15.20;99.90
23114;DHT22;11726;50.122;8.832;2023-09-07T05:36:31;15.30;99.90
23114;DHT22;11726;50.122;8.832;2023-09-07T05:38:58;15.30;99.90
23114;DHT22;11726;50.122;8.832;2023-09-07T05:41:25;15.40;99.90
23114;DHT22;11726;50.122;8.832;2023-09-07T05:43:52;15.50;99.90
23114;DHT22;11726;50.122;8.832;2023-09-07T05:46:19;15.50;99.90
23114;DHT22;11726;50.122;8.832;2023-09-07T05:48:46;15.60;99.90
23114;DHT22;11726;50.122;8.832;2023-09-07T05:51:12;15.70;99.90
23114;DHT22;11726;50.122;8.832;2023-09-07T05:53:39;15.70;99.90
23114;DHT22;11726;50.122;8.832;2023-09-07T05:56:06;15.80;99.90
23114;DHT22;11726;50.122;8.832;2023-09-07T05:58:32;15.90;99.90
23114;DHT22;11726;50.122;8.832;2023-09-07T06:01:00;15.90;99.90
23114;DHT22;11726;50.122;8.832;2023-09-07T06:03:27;16.00;99.90
23114;DHT22;11726;50.122;8.832;2023-09-07T06:05:54;16.00;99.90
23114;DHT22;11726;50.122;8.832;2023-09-07T06:08:21;16.10;99.90
23114;DHT22;11726;50.122;8.832;2023-09-07T06:10:48;16.20;99.90
23114;DHT22;11726;50.122;8.832;2023-09-07T06:13:14;16.30;99.90
23114;DHT22;11726;50.122;8.832;2023-09-07T06:15:41;16.40;99.90
23114;DHT22;11726;50.122;8.832;2023-09-07T06:18:08;16.50;99.90
23114;DHT22;11726;50.122;8.832;2023-09-07T06:20:35;16.40;99.90
23114;DHT22;11726;50.122;8.832;2023-09-07T06:23:02;16.40;99.90
23114;DHT22;11726;50.122;8.832;2023-09-07T06:25:29;16.50;99.90
23114;DHT22;11726;50.122;8.832;2023-09-07T06:27:56;16.70;99.90
23114;DHT22;11726;50.122;8.832;2023-09-07T06:30:23;16.80;99.90
23114;DHT22;11726;50.122;8.832;2023-09-07T06:32:49;16.90;99.90
23114;DHT22;11726;50.122;8.832;2023-09-07T06:35:18;17.00;99.90
23114;DHT22;11726;50.122;8.832;2023-09-07T06:37:45;17.10;99.90
23114;DHT22;11726;50.122;8.832;2023-09-07T06:40:12;17.20;99.90
23114;DHT22;11726;50.122;8.832;2023-09-07T06:42:40;17.30;99.90
23114;DHT22;11726;50.122;8.832;2023-09-07T06:45:07;17.50;99.90
23114;DHT22;11726;50.122;8.832;2023-09-07T06:47:34;17.60;99.90
23114;DHT22;11726;50.122;8.832;2023-09-07T06:50:02;17.70;99.90
23114;DHT22;11726;50.122;8.832;2023-09-07T06:52:28;17.80;99.90
23114;DHT22;11726;50.122;8.832;2023-09-07T06:54:55;18.00;99.90
23114;DHT22;11726;50.122;8.832;2023-09-07T06:57:22;18.00;99.90
23114;DHT22;11726;50.122;8.832;2023-09-07T06:59:49;18.20;99.90
23114;DHT22;11726;50.122;8.832;2023-09-07T07:02:16;18.40;99.90
23114;DHT22;11726;50.122;8.832;2023-09-07T07:04:42;18.60;99.90
23114;DHT22;11726;50.122;8.832;2023-09-07T07:07:10;18.70;99.90
23114;DHT22;11726;50.122;8.832;2023-09-07T07:09:37;18.80;99.90
23114;DHT22;11726;50.122;8.832;2023-09-07T07:12:04;19.00;99.90
23114;DHT22;11726;50.122;8.832;2023-09-07T07:14:31;19.10;99.90
23114;DHT22;11726;50.122;8.832;2023-09-07T07:16:58;19.20;99.90
23114;DHT22;11726;50.122;8.832;2023-09-07T07:19:25;19.20;99.90
23114;DHT22;11726;50.122;8.832;2023-09-07T07:21:52;19.30;99.90
23114;DHT22;11726;50.122;8.832;2023-09-07T07:24:19;19.50;99.90
23114;DHT22;11726;50.122;8.832;2023-09-07T07:26:46;19.70;99.90
23114;DHT22;11726;50.122;8.832;2023-09-07T07:29:13;19.90;99.90
23114;DHT22;11726;50.122;8.832;2023-09-07T07:31:40;20.00;99.90
23114;DHT22;11726;50.122;8.832;2023-09-07T07:34:06;20.10;99.90
23114;DHT22;11726;50.122;8.832;2023-09-07T07:36:33;20.10;99.90
23114;DHT22;11726;50.122;8.832;2023-09-07T07:39:00;20.20;99.90
23114;DHT22;11726;50.122;8.832;2023-09-07T07:41:26;20.30;99.90
23114;DHT22;11726;50.122;8.832;2023-09-07T07:43:53;20.50;99.90
23114;DHT22;11726;50.122;8.832;2023-09-07T07:46:20;20.50;99.90
23114;DHT22;11726;50.122;8.832;2023-09-07T07:48:47;20.50;99.90
23114;DHT22;11726;50.122;8.832;2023-09-07T07:51:14;20.80;99.90
23114;DHT22;11726;50.122;8.832;2023-09-07T07:53:41;20.80;99.90
23114;DHT22;11726;50.122;8.832;2023-09-07T07:56:15;20.80;99.90
23114;DHT22;11726;50.122;8.832;2023-09-07T07:58:42;20.90;99.90
23114;DHT22;11726;50.122;8.832;2023-09-07T08:01:20;21.10;99.90
23114;DHT22;11726;50.122;8.832;2023-09-07T08:03:47;21.20;99.90
23114;DHT22;11726;50.122;8.832;2023-09-07T08:06:14;21.10;99.90
23114;DHT22;11726;50.122;8.832;2023-09-07T08:08:41;21.30;99.90
23114;DHT22;11726;50.122;8.832;2023-09-07T08:11:08;21.30;99.90
23114;DHT22;11726;50.122;8.832;2023-09-07T08:13:35;21.50;99.90
23114;DHT22;11726;50.122;8.832;2023-09-07T08:16:02;21.50;99.90
23114;DHT22;11726;50.122;8.832;2023-09-07T08:18:31;21.50;99.90
23114;DHT22;11726;50.122;8.832;2023-09-07T08:20:59;21.70;99.90
23114;DHT22;11726;50.122;8.832;2023-09-07T08:23:26;21.70;99.90
23114;DHT22;11726;50.122;8.832;2023-09-07T08:25:53;21.90;99.90
23114;DHT22;11726;50.122;8.832;2023-09-07T08:28:19;22.10;99.90
23114;DHT22;11726;50.122;8.832;2023-09-07T08:30:50;22.00;99.90
23114;DHT22;11726;50.122;8.832;2023-09-07T08:33:20;22.10;99.90
23114;DHT22;11726;50.122;8.832;2023-09-07T08:35:53;22.20;99.90
23114;DHT22;11726;50.122;8.832;2023-09-07T08:38:22;22.30;99.90
23114;DHT22;11726;50.122;8.832;2023-09-07T08:40:53;22.30;99.90
23114;DHT22;11726;50.122;8.832;2023-09-07T08:43:21;22.40;99.90
23114;DHT22;11726;50.122;8.832;2023-09-07T08:45:58;22.40;99.90
23114;DHT22;11726;50.122;8.832;2023-09-07T08:48:28;22.60;99.90
23114;DHT22;11726;50.122;8.832;2023-09-07T08:50:57;22.70;99.90
23114;DHT22;11726;50.122;8.832;2023-09-07T08:53:24;22.80;99.90
23114;DHT22;11726;50.122;8.832;2023-09-07T08:55:52;22.90;99.90
23114;DHT22;11726;50.122;8.832;2023-09-07T08:58:19;22.90;99.90
23114;DHT22;11726;50.122;8.832;2023-09-07T09:00:46;23.10;99.90
23114;DHT22;11726;50.122;8.832;2023-09-07T09:03:13;23.20;99.90
23114;DHT22;11726;50.122;8.832;2023-09-07T09:05:40;23.20;99.90
23114;DHT22;11726;50.122;8.832;2023-09-07T09:08:10;23.30;99.90
23114;DHT22;11726;50.122;8.832;2023-09-07T09:10:38;23.40;99.90
23114;DHT22;11726;50.122;8.832;2023-09-07T09:13:06;23.60;99.90
23114;DHT22;11726;50.122;8.832;2023-09-07T09:15:33;23.60;99.90
23114;DHT22;11726;50.122;8.832;2023-09-07T09:18:11;23.50;99.90
23114;DHT22;11726;50.122;8.832;2023-09-07T09:20:39;23.50;99.90
23114;DHT22;11726;50.122;8.832;2023-09-07T09:23:06;23.50;99.90
23114;DHT22;11726;50.122;8.832;2023-09-07T09:25:34;23.70;99.90
23114;DHT22;11726;50.122;8.832;2023-09-07T09:28:00;23.80;99.90
23114;DHT22;11726;50.122;8.832;2023-09-07T09:30:27;23.70;99.90
23114;DHT22;11726;50.122;8.832;2023-09-07T09:32:55;23.80;99.90
23114;DHT22;11726;50.122;8.832;2023-09-07T09:35:22;23.80;99.90
23114;DHT22;11726;50.122;8.832;2023-09-07T09:37:49;23.90;99.90
23114;DHT22;11726;50.122;8.832;2023-09-07T09:40:16;24.10;99.90
23114;DHT22;11726;50.122;8.832;2023-09-07T09:42:44;24.30;99.90
23114;DHT22;11726;50.122;8.832;2023-09-07T09:45:14;24.10;99.90
23114;DHT22;11726;50.122;8.832;2023-09-07T09:47:41;24.20;99.90
23114;DHT22;11726;50.122;8.832;2023-09-07T09:50:10;24.30;99.90
23114;DHT22;11726;50.122;8.832;2023-09-07T09:52:38;24.30;99.90
23114;DHT22;11726;50.122;8.832;2023-09-07T09:55:07;24.50;99.90
23114;DHT22;11726;50.122;8.832;2023-09-07T09:57:35;24.50;99.90
23114;DHT22;11726;50.122;8.832;2023-09-07T10:00:04;24.50;99.90
23114;DHT22;11726;50.122;8.832;2023-09-07T10:02:47;24.40;99.90
23114;DHT22;11726;50.122;8.832;2023-09-07T10:05:15;24.50;99.90
23114;DHT22;11726;50.122;8.832;2023-09-07T10:07:43;24.70;99.90
23114;DHT22;11726;50.122;8.832;2023-09-07T10:10:14;24.90;99.90
23114;DHT22;11726;50.122;8.832;2023-09-07T10:12:42;24.90;99.90
23114;DHT22;11726;50.122;8.832;2023-09-07T10:15:29;25.30;99.90
23114;DHT22;11726;50.122;8.832;2023-09-07T10:18:15;25.30;99.90
23114;DHT22;11726;50.122;8.832;2023-09-07T10:20:55;25.40;99.90
23114;DHT22;11726;50.122;8.832;2023-09-07T10:23:33;25.20;99.90
23114;DHT22;11726;50.122;8.832;2023-09-07T10:26:03;25.40;99.90
23114;DHT22;11726;50.122;8.832;2023-09-07T10:28:33;25.40;99.90
23114;DHT22;11726;50.122;8.832;2023-09-07T10:31:12;25.40;99.90
23114;DHT22;11726;50.122;8.832;2023-09-07T10:33:39;25.50;99.90
23114;DHT22;11726;50.122;8.832;2023-09-07T10:36:07;25.80;99.90
23114;DHT22;11726;50.122;8.832;2023-09-07T10:38:35;25.90;99.90
23114;DHT22;11726;50.122;8.832;2023-09-07T10:41:03;25.80;99.90
23114;DHT22;11726;50.122;8.832;2023-09-07T10:43:32;25.70;99.90
23114;DHT22;11726;50.122;8.832;2023-09-07T10:46:00;25.80;99.90
23114;DHT22;11726;50.122;8.832;2023-09-07T10:48:29;25.90;99.90
23114;DHT22;11726;50.122;8.832;2023-09-07T10:50:56;25.90;99.90
23114;DHT22;11726;50.122;8.832;2023-09-07T10:53:30;26.10;99.90
23114;DHT22;11726;50.122;8.832;2023-09-07T10:56:02;26.30;99.90
23114;DHT22;11726;50.122;8.832;2023-09-07T10:58:34;26.30;99.90
23114;DHT22;11726;50.122;8.832;2023-09-07T11:01:01;26.20;99.90
23114;DHT22;11726;50.122;8.832;2023-09-07T11:03:30;26.30;99.90
23114;DHT22;11726;50.122;8.832;2023-09-07T11:08:32;26.60;99.90
23114;DHT22;11726;50.122;8.832;2023-09-07T11:11:01;26.60;99.90
23114;DHT22;11726;50.122;8.832;2023-09-07T11:13:29;26.60;99.90
23114;DHT22;11726;50.122;8.832;2023-09-07T11:15:58;26.60;99.90
23114;DHT22;11726;50.122;8.832;2023-09-07T11:18:25;26.70;99.90
23114;DHT22;11726;50.122;8.832;2023-09-07T11:20:53;26.80;99.90
23114;DHT22;11726;50.122;8.832;2023-09-07T11:23:21;26.90;99.90
23114;DHT22;11726;50.122;8.832;2023-09-07T11:25:48;27.10;99.90
23114;DHT22;11726;50.122;8.832;2023-09-07T11:28:19;27.20;99.90
23114;DHT22;11726;50.122;8.832;2023-09-07T11:30:53;27.20;99.60
23114;DHT22;11726;50.122;8.832;2023-09-07T11:33:21;27.30;99.90
23114;DHT22;11726;50.122;8.832;2023-09-07T11:35:48;27.30;99.90
23114;DHT22;11726;50.122;8.832;2023-09-07T11:38:16;27.20;99.90
23114;DHT22;11726;50.122;8.832;2023-09-07T11:40:46;27.30;99.90
23114;DHT22;11726;50.122;8.832;2023-09-07T11:43:15;27.50;99.90
23114;DHT22;11726;50.122;8.832;2023-09-07T11:45:43;27.50;99.60
23114;DHT22;11726;50.122;8.832;2023-09-07T11:48:11;27.50;99.30
23114;DHT22;11726;50.122;8.832;2023-09-07T11:50:39;27.60;98.60
23114;DHT22;11726;50.122;8.832;2023-09-07T11:53:07;27.60;98.30
23114;DHT22;11726;50.122;8.832;2023-09-07T11:55:34;27.90;99.50
23114;DHT22;11726;50.122;8.832;2023-09-07T11:58:03;28.00;98.90
23114;DHT22;11726;50.122;8.832;2023-09-07T12:00:30;28.10;98.00
23114;DHT22;11726;50.122;8.832;2023-09-07T12:02:58;28.10;98.10
23114;DHT22;11726;50.122;8.832;2023-09-07T12:05:25;28.20;97.60
23114;DHT22;11726;50.122;8.832;2023-09-07T12:07:52;28.20;96.80
23114;DHT22;11726;50.122;8.832;2023-09-07T12:10:19;28.30;98.10
23114;DHT22;11726;50.122;8.832;2023-09-07T12:12:46;28.30;95.40
23114;DHT22;11726;50.122;8.832;2023-09-07T12:15:13;28.30;96.50
23114;DHT22;11726;50.122;8.832;2023-09-07T12:17:40;28.40;96.90
23114;DHT22;11726;50.122;8.832;2023-09-07T12:20:08;28.50;95.50
23114;DHT22;11726;50.122;8.832;2023-09-07T12:22:37;28.40;96.50
23114;DHT22;11726;50.122;8.832;2023-09-07T12:25:05;28.60;97.30
23114;DHT22;11726;50.122;8.832;2023-09-07T12:27:41;28.90;95.90
23114;DHT22;11726;50.122;8.832;2023-09-07T12:30:17;29.00;96.40
23114;DHT22;11726;50.122;8.832;2023-09-07T12:32:45;29.10;93.90
23114;DHT22;11726;50.122;8.832;2023-09-07T12:35:12;29.20;93.30
23114;DHT22;11726;50.122;8.832;2023-09-07T12:37:38;29.10;93.90
23114;DHT22;11726;50.122;8.832;2023-09-07T12:40:05;29.10;93.70
23114;DHT22;11726;50.122;8.832;2023-09-07T12:42:40;29.30;94.20
23114;DHT22;11726;50.122;8.832;2023-09-07T12:45:08;29.50;92.80
23114;DHT22;11726;50.122;8.832;2023-09-07T12:47:36;29.60;92.00
23114;DHT22;11726;50.122;8.832;2023-09-07T12:50:04;29.70;92.90
23114;DHT22;11726;50.122;8.832;2023-09-07T12:52:32;29.70;93.40
23114;DHT22;11726;50.122;8.832;2023-09-07T12:55:02;29.80;93.30
23114;DHT22;11726;50.122;8.832;2023-09-07T12:57:29;29.80;92.10
23114;DHT22;11726;50.122;8.832;2023-09-07T12:59:55;29.90;92.10
23114;DHT22;11726;50.122;8.832;2023-09-07T13:02:22;29.80;92.20
23114;DHT22;11726;50.122;8.832;2023-09-07T13:04:49;30.00;91.70
23114;DHT22;11726;50.122;8.832;2023-09-07T13:07:16;30.00;91.90
23114;DHT22;11726;50.122;8.832;2023-09-07T13:09:44;30.30;91.30
23114;DHT22;11726;50.122;8.832;2023-09-07T13:12:12;30.40;90.90
23114;DHT22;11726;50.122;8.832;2023-09-07T13:14:38;30.50;91.70
23114;DHT22;11726;50.122;8.832;2023-09-07T13:17:05;30.40;91.00
23114;DHT22;11726;50.122;8.832;2023-09-07T13:19:32;30.70;90.90
23114;DHT22;11726;50.122;8.832;2023-09-07T13:21:58;30.70;89.70
23114;DHT22;11726;50.122;8.832;2023-09-07T13:24:26;30.80;90.00
23114;DHT22;11726;50.122;8.832;2023-09-07T13:26:53;31.00;89.90
23114;DHT22;11726;50.122;8.832;2023-09-07T13:29:20;31.20;87.70
23114;DHT22;11726;50.122;8.832;2023-09-07T13:31:46;31.40;87.10
23114;DHT22;11726;50.122;8.832;2023-09-07T13:34:13;31.30;86.20
23114;DHT22;11726;50.122;8.832;2023-09-07T13:36:40;31.40;85.70
23114;DHT22;11726;50.122;8.832;2023-09-07T13:39:06;31.30;85.80
23114;DHT22;11726;50.122;8.832;2023-09-07T13:41:33;31.50;85.70
23114;DHT22;11726;50.122;8.832;2023-09-07T13:44:00;31.70;87.00
23114;DHT22;11726;50.122;8.832;2023-09-07T13:46:27;32.00;84.50
23114;DHT22;11726;50.122;8.832;2023-09-07T13:48:54;31.90;82.90
23114;DHT22;11726;50.122;8.832;2023-09-07T13:51:20;32.00;85.50
23114;DHT22;11726;50.122;8.832;2023-09-07T13:53:47;32.10;84.90
23114;DHT22;11726;50.122;8.832;2023-09-07T13:56:14;32.00;84.20
23114;DHT22;11726;50.122;8.832;2023-09-07T13:58:40;32.00;84.80
23114;DHT22;11726;50.122;8.832;2023-09-07T14:01:07;32.20;83.20
23114;DHT22;11726;50.122;8.832;2023-09-07T14:03:36;32.00;81.10
23114;DHT22;11726;50.122;8.832;2023-09-07T14:06:03;32.00;83.40
23114;DHT22;11726;50.122;8.832;2023-09-07T14:08:30;32.00;83.70
23114;DHT22;11726;50.122;8.832;2023-09-07T14:10:59;32.20;82.40
23114;DHT22;11726;50.122;8.832;2023-09-07T14:13:26;32.60;79.70
23114;DHT22;11726;50.122;8.832;2023-09-07T14:15:53;33.40;76.80
23114;DHT22;11726;50.122;8.832;2023-09-07T14:18:22;33.30;76.80
23114;DHT22;11726;50.122;8.832;2023-09-07T14:20:48;32.80;76.80
23114;DHT22;11726;50.122;8.832;2023-09-07T14:23:15;32.70;76.80
23114;DHT22;11726;50.122;8.832;2023-09-07T14:25:42;32.80;77.60
23114;DHT22;11726;50.122;8.832;2023-09-07T14:28:11;32.80;79.90
23114;DHT22;11726;50.122;8.832;2023-09-07T14:30:38;32.80;77.10
23114;DHT22;11726;50.122;8.832;2023-09-07T14:33:05;32.90;76.40
23114;DHT22;11726;50.122;8.832;2023-09-07T14:35:32;33.10;76.50
23114;DHT22;11726;50.122;8.832;2023-09-07T14:37:59;33.30;71.50
23114;DHT22;11726;50.122;8.832;2023-09-07T14:40:25;33.40;69.70
23114;DHT22;11726;50.122;8.832;2023-09-07T14:42:52;33.30;67.80
23114;DHT22;11726;50.122;8.832;2023-09-07T14:45:20;33.50;69.10
23114;DHT22;11726;50.122;8.832;2023-09-07T14:47:46;33.60;66.40
23114;DHT22;11726;50.122;8.832;2023-09-07T14:50:13;33.50;65.60
23114;DHT22;11726;50.122;8.832;2023-09-07T14:52:40;33.30;66.80
23114;DHT22;11726;50.122;8.832;2023-09-07T14:55:14;33.80;66.80
23114;DHT22;11726;50.122;8.832;2023-09-07T14:57:41;33.80;61.30
23114;DHT22;11726;50.122;8.832;2023-09-07T15:00:10;33.60;64.00
23114;DHT22;11726;50.122;8.832;2023-09-07T15:02:38;33.50;63.50
23114;DHT22;11726;50.122;8.832;2023-09-07T15:05:05;33.80;62.90
23114;DHT22;11726;50.122;8.832;2023-09-07T15:07:31;33.70;62.60
23114;DHT22;11726;50.122;8.832;2023-09-07T15:09:58;33.40;63.70
23114;DHT22;11726;50.122;8.832;2023-09-07T15:12:25;33.40;64.00
23114;DHT22;11726;50.122;8.832;2023-09-07T15:14:52;33.30;61.80
23114;DHT22;11726;50.122;8.832;2023-09-07T15:17:19;33.40;61.30
23114;DHT22;11726;50.122;8.832;2023-09-07T15:19:46;33.80;59.10
23114;DHT22;11726;50.122;8.832;2023-09-07T15:22:12;33.80;59.20
23114;DHT22;11726;50.122;8.832;2023-09-07T15:24:39;33.80;58.40
23114;DHT22;11726;50.122;8.832;2023-09-07T15:27:09;33.40;60.70
23114;DHT22;11726;50.122;8.832;2023-09-07T15:29:37;33.30;61.10
23114;DHT22;11726;50.122;8.832;2023-09-07T15:32:04;33.40;61.20
23114;DHT22;11726;50.122;8.832;2023-09-07T15:34:32;33.30;59.60
23114;DHT22;11726;50.122;8.832;2023-09-07T15:37:02;33.30;61.20